Beaver, Oregon
Current Conditions -  °F | °C
As of 1:15 AM on Monday 20 Oct 2014 (Local Time) from KTMK Reporting Station
Drizzle Drizzle  
Wind Chill: 59°   Ceiling: 3000
Heat Index: 59°   Visibility: 4mi
Dew Point: 57°   Wind: 3mph
Humidity: 94%   Direction: 50°NE
Pressure: 29.73"   Gusts: NA
Location:  45.28°N, 123.83°W
Report Text: KTMK 200815Z AUTO 05003KT 4SM DZ SCT016 BKN030 OVC046 15/14 A2973 RMK AO2
Loading
Personal Weather Stations






























Interactive Weather Map
Tropical Storm Tracking
New forecast layout! Learn more

10-Day Weather Forecast

Advertisements
Track Severe Weather on mobile